sensor_id;sensor_type;location;lat;lon;timestamp;temperature;humidity
66568;DHT22;53422;49.296;6.900;2023-07-29T00:00:15;19.50;99.90
66568;DHT22;53422;49.296;6.900;2023-07-29T00:02:42;19.50;99.90
66568;DHT22;53422;49.296;6.900;2023-07-29T00:05:07;19.50;99.90
66568;DHT22;53422;49.296;6.900;2023-07-29T00:07:33;19.50;99.90
66568;DHT22;53422;49.296;6.900;2023-07-29T00:09:58;19.50;99.90
66568;DHT22;53422;49.296;6.900;2023-07-29T00:12:24;19.50;99.90
66568;DHT22;53422;49.296;6.900;2023-07-29T00:14:50;19.50;99.90
66568;DHT22;53422;49.296;6.900;2023-07-29T00:17:15;19.60;99.90
66568;DHT22;53422;49.296;6.900;2023-07-29T00:19:41;19.60;99.90
66568;DHT22;53422;49.296;6.900;2023-07-29T00:22:06;19.60;99.90
66568;DHT22;53422;49.296;6.900;2023-07-29T00:24:33;19.50;99.90
66568;DHT22;53422;49.296;6.900;2023-07-29T00:26:59;19.50;99.90
66568;DHT22;53422;49.296;6.900;2023-07-29T00:29:24;19.50;99.90
66568;DHT22;53422;49.296;6.900;2023-07-29T00:31:50;19.50;99.90
66568;DHT22;53422;49.296;6.900;2023-07-29T00:34:16;19.50;99.90
66568;DHT22;53422;49.296;6.900;2023-07-29T00:36:47;19.50;99.90
66568;DHT22;53422;49.296;6.900;2023-07-29T00:39:12;19.60;99.90
66568;DHT22;53422;49.296;6.900;2023-07-29T00:41:38;19.60;99.90
66568;DHT22;53422;49.296;6.900;2023-07-29T00:44:04;19.60;99.90
66568;DHT22;53422;49.296;6.900;2023-07-29T00:46:32;19.60;99.90
66568;DHT22;53422;49.296;6.900;2023-07-29T00:48:58;19.60;99.90
66568;DHT22;53422;49.296;6.900;2023-07-29T00:51:24;19.60;99.90
66568;DHT22;53422;49.296;6.900;2023-07-29T00:53:50;19.60;99.90
66568;DHT22;53422;49.296;6.900;2023-07-29T00:56:15;19.60;99.90
66568;DHT22;53422;49.296;6.900;2023-07-29T00:58:41;19.60;99.90
66568;DHT22;53422;49.296;6.900;2023-07-29T01:01:07;19.60;99.90
66568;DHT22;53422;49.296;6.900;2023-07-29T01:03:33;19.60;99.90
66568;DHT22;53422;49.296;6.900;2023-07-29T01:06:12;19.60;99.90
66568;DHT22;53422;49.296;6.900;2023-07-29T01:09:03;19.60;99.90
66568;DHT22;53422;49.296;6.900;2023-07-29T01:14:29;19.60;99.90
66568;DHT22;53422;49.296;6.900;2023-07-29T01:17:09;19.60;99.90
66568;DHT22;53422;49.296;6.900;2023-07-29T01:20:00;19.50;99.90
66568;DHT22;53422;49.296;6.900;2023-07-29T01:22:29;19.50;99.90
66568;DHT22;53422;49.296;6.900;2023-07-29T01:24:57;19.50;99.90
66568;DHT22;53422;49.296;6.900;2023-07-29T01:27:23;19.50;99.90
66568;DHT22;53422;49.296;6.900;2023-07-29T01:29:48;19.50;99.90
66568;DHT22;53422;49.296;6.900;2023-07-29T01:32:19;19.50;99.90
66568;DHT22;53422;49.296;6.900;2023-07-29T01:34:51;19.60;99.90
66568;DHT22;53422;49.296;6.900;2023-07-29T01:37:22;19.60;99.90
66568;DHT22;53422;49.296;6.900;2023-07-29T01:39:52;19.50;99.90
66568;DHT22;53422;49.296;6.900;2023-07-29T01:42:20;19.60;99.90
66568;DHT22;53422;49.296;6.900;2023-07-29T01:44:46;19.60;99.90
66568;DHT22;53422;49.296;6.900;2023-07-29T01:47:12;19.50;99.90
66568;DHT22;53422;49.296;6.900;2023-07-29T01:49:37;19.50;99.90
66568;DHT22;53422;49.296;6.900;2023-07-29T01:52:03;19.50;99.90
66568;DHT22;53422;49.296;6.900;2023-07-29T01:54:29;19.50;99.90
66568;DHT22;53422;49.296;6.900;2023-07-29T01:56:54;19.50;99.90
66568;DHT22;53422;49.296;6.900;2023-07-29T01:59:20;19.60;99.90
66568;DHT22;53422;49.296;6.900;2023-07-29T02:01:45;19.50;99.90
66568;DHT22;53422;49.296;6.900;2023-07-29T02:04:12;19.50;99.90
66568;DHT22;53422;49.296;6.900;2023-07-29T02:06:37;19.50;99.90
66568;DHT22;53422;49.296;6.900;2023-07-29T02:09:03;19.50;99.90
66568;DHT22;53422;49.296;6.900;2023-07-29T02:11:30;19.50;99.90
66568;DHT22;53422;49.296;6.900;2023-07-29T02:13:56;19.40;99.90
66568;DHT22;53422;49.296;6.900;2023-07-29T02:16:22;19.40;99.90
66568;DHT22;53422;49.296;6.900;2023-07-29T02:18:48;19.40;99.90
66568;DHT22;53422;49.296;6.900;2023-07-29T02:21:15;19.40;99.90
66568;DHT22;53422;49.296;6.900;2023-07-29T02:23:41;19.40;99.90
66568;DHT22;53422;49.296;6.900;2023-07-29T02:26:06;19.40;99.90
66568;DHT22;53422;49.296;6.900;2023-07-29T02:28:32;19.40;99.90
66568;DHT22;53422;49.296;6.900;2023-07-29T02:33:40;19.40;99.90
66568;DHT22;53422;49.296;6.900;2023-07-29T02:36:05;19.40;99.90
66568;DHT22;53422;49.296;6.900;2023-07-29T02:38:31;19.40;99.90
66568;DHT22;53422;49.296;6.900;2023-07-29T02:40:56;19.40;99.90
66568;DHT22;53422;49.296;6.900;2023-07-29T02:43:22;19.40;99.90
66568;DHT22;53422;49.296;6.900;2023-07-29T02:45:48;19.40;99.90
66568;DHT22;53422;49.296;6.900;2023-07-29T02:48:13;19.40;99.90
66568;DHT22;53422;49.296;6.900;2023-07-29T02:50:39;19.40;99.90
66568;DHT22;53422;49.296;6.900;2023-07-29T02:53:04;19.40;99.90
66568;DHT22;53422;49.296;6.900;2023-07-29T02:55:30;19.40;99.90
66568;DHT22;53422;49.296;6.900;2023-07-29T02:57:56;19.40;99.90
66568;DHT22;53422;49.296;6.900;2023-07-29T03:00:21;19.40;99.90
66568;DHT22;53422;49.296;6.900;2023-07-29T03:02:47;19.40;99.90
66568;DHT22;53422;49.296;6.900;2023-07-29T03:05:12;19.40;99.90
66568;DHT22;53422;49.296;6.900;2023-07-29T03:07:38;19.30;99.90
66568;DHT22;53422;49.296;6.900;2023-07-29T03:10:04;19.30;99.90
66568;DHT22;53422;49.296;6.900;2023-07-29T03:12:30;19.40;99.90
66568;DHT22;53422;49.296;6.900;2023-07-29T03:14:56;19.40;99.90
66568;DHT22;53422;49.296;6.900;2023-07-29T03:17:22;19.40;99.90
66568;DHT22;53422;49.296;6.900;2023-07-29T03:19:47;19.30;99.90
66568;DHT22;53422;49.296;6.900;2023-07-29T03:22:13;19.30;99.90
66568;DHT22;53422;49.296;6.900;2023-07-29T03:24:38;19.40;99.90
66568;DHT22;53422;49.296;6.900;2023-07-29T03:27:04;19.40;99.90
66568;DHT22;53422;49.296;6.900;2023-07-29T03:29:30;19.40;99.90
66568;DHT22;53422;49.296;6.900;2023-07-29T03:31:56;19.30;99.90
66568;DHT22;53422;49.296;6.900;2023-07-29T03:34:21;19.40;99.90
66568;DHT22;53422;49.296;6.900;2023-07-29T03:36:47;19.40;99.90
66568;DHT22;53422;49.296;6.900;2023-07-29T03:39:16;19.40;99.90
66568;DHT22;53422;49.296;6.900;2023-07-29T03:41:42;19.40;99.90
66568;DHT22;53422;49.296;6.900;2023-07-29T03:44:08;19.40;99.90
66568;DHT22;53422;49.296;6.900;2023-07-29T03:46:33;19.40;99.90
66568;DHT22;53422;49.296;6.900;2023-07-29T03:48:59;19.40;99.90
66568;DHT22;53422;49.296;6.900;2023-07-29T03:51:24;19.30;99.90
66568;DHT22;53422;49.296;6.900;2023-07-29T03:53:50;19.30;99.90
66568;DHT22;53422;49.296;6.900;2023-07-29T03:56:16;19.40;99.90
66568;DHT22;53422;49.296;6.900;2023-07-29T03:58:42;19.40;99.90
66568;DHT22;53422;49.296;6.900;2023-07-29T04:01:09;19.40;99.90
66568;DHT22;53422;49.296;6.900;2023-07-29T04:03:34;19.40;99.90
66568;DHT22;53422;49.296;6.900;2023-07-29T04:06:00;19.40;99.90
66568;DHT22;53422;49.296;6.900;2023-07-29T04:08:26;19.40;99.90
66568;DHT22;53422;49.296;6.900;2023-07-29T04:10:51;19.30;99.90
66568;DHT22;53422;49.296;6.900;2023-07-29T04:13:17;19.40;99.90
66568;DHT22;53422;49.296;6.900;2023-07-29T04:15:43;19.40;99.90
66568;DHT22;53422;49.296;6.900;2023-07-29T04:18:08;19.30;99.90
66568;DHT22;53422;49.296;6.900;2023-07-29T04:20:34;19.30;99.90
66568;DHT22;53422;49.296;6.900;2023-07-29T04:22:59;19.30;99.90
66568;DHT22;53422;49.296;6.900;2023-07-29T04:25:25;19.40;99.90
66568;DHT22;53422;49.296;6.900;2023-07-29T04:27:51;19.40;99.90
66568;DHT22;53422;49.296;6.900;2023-07-29T04:30:16;19.40;99.90
66568;DHT22;53422;49.296;6.900;2023-07-29T04:32:42;19.30;99.90
66568;DHT22;53422;49.296;6.900;2023-07-29T04:35:10;19.30;99.90
66568;DHT22;53422;49.296;6.900;2023-07-29T04:37:36;19.40;99.90
66568;DHT22;53422;49.296;6.900;2023-07-29T04:40:02;19.40;99.90
66568;DHT22;53422;49.296;6.900;2023-07-29T04:42:27;19.40;99.90
66568;DHT22;53422;49.296;6.900;2023-07-29T04:44:53;19.40;99.90
66568;DHT22;53422;49.296;6.900;2023-07-29T04:47:19;19.40;99.90
66568;DHT22;53422;49.296;6.900;2023-07-29T04:49:44;19.40;99.90
66568;DHT22;53422;49.296;6.900;2023-07-29T04:52:10;19.40;99.90
66568;DHT22;53422;49.296;6.900;2023-07-29T04:54:35;19.30;99.90
66568;DHT22;53422;49.296;6.900;2023-07-29T04:57:01;19.40;99.90
66568;DHT22;53422;49.296;6.900;2023-07-29T04:59:27;19.40;99.90
66568;DHT22;53422;49.296;6.900;2023-07-29T05:01:52;19.40;99.90
66568;DHT22;53422;49.296;6.900;2023-07-29T05:04:18;19.40;99.90
66568;DHT22;53422;49.296;6.900;2023-07-29T05:06:43;19.40;99.90
66568;DHT22;53422;49.296;6.900;2023-07-29T05:09:13;19.40;99.90
66568;DHT22;53422;49.296;6.900;2023-07-29T05:11:39;19.40;99.90
66568;DHT22;53422;49.296;6.900;2023-07-29T05:14:05;19.50;99.90
66568;DHT22;53422;49.296;6.900;2023-07-29T05:16:31;19.40;99.90
66568;DHT22;53422;49.296;6.900;2023-07-29T05:18:57;19.40;99.90
66568;DHT22;53422;49.296;6.900;2023-07-29T05:21:23;19.50;99.90
66568;DHT22;53422;49.296;6.900;2023-07-29T05:23:48;19.50;99.90
66568;DHT22;53422;49.296;6.900;2023-07-29T05:26:14;19.50;99.90
66568;DHT22;53422;49.296;6.900;2023-07-29T05:28:40;19.50;99.90
66568;DHT22;53422;49.296;6.900;2023-07-29T05:31:05;19.50;99.90
66568;DHT22;53422;49.296;6.900;2023-07-29T05:33:32;19.50;99.90
66568;DHT22;53422;49.296;6.900;2023-07-29T05:35:58;19.50;99.90
66568;DHT22;53422;49.296;6.900;2023-07-29T05:38:23;19.50;99.90
66568;DHT22;53422;49.296;6.900;2023-07-29T05:40:49;19.50;99.90
66568;DHT22;53422;49.296;6.900;2023-07-29T05:43:14;19.50;99.90
66568;DHT22;53422;49.296;6.900;2023-07-29T05:45:40;19.50;99.90
66568;DHT22;53422;49.296;6.900;2023-07-29T05:48:06;19.50;99.90
66568;DHT22;53422;49.296;6.900;2023-07-29T05:50:31;19.60;99.90
66568;DHT22;53422;49.296;6.900;2023-07-29T05:52:57;19.50;99.90
66568;DHT22;53422;49.296;6.900;2023-07-29T05:55:22;19.50;99.90
66568;DHT22;53422;49.296;6.900;2023-07-29T05:57:48;19.60;99.90
66568;DHT22;53422;49.296;6.900;2023-07-29T06:00:14;19.60;99.90
66568;DHT22;53422;49.296;6.900;2023-07-29T06:02:39;19.60;99.90
66568;DHT22;53422;49.296;6.900;2023-07-29T06:05:06;19.60;99.90
66568;DHT22;53422;49.296;6.900;2023-07-29T06:07:32;19.60;99.90
66568;DHT22;53422;49.296;6.900;2023-07-29T06:10:01;19.60;99.90
66568;DHT22;53422;49.296;6.900;2023-07-29T06:12:26;19.60;99.90
66568;DHT22;53422;49.296;6.900;2023-07-29T06:14:52;19.70;99.90
66568;DHT22;53422;49.296;6.900;2023-07-29T06:17:18;19.70;99.90
66568;DHT22;53422;49.296;6.900;2023-07-29T06:19:43;19.70;99.90
66568;DHT22;53422;49.296;6.900;2023-07-29T06:22:10;19.70;99.90
66568;DHT22;53422;49.296;6.900;2023-07-29T06:24:35;19.80;99.90
66568;DHT22;53422;49.296;6.900;2023-07-29T06:27:01;19.90;99.90
66568;DHT22;53422;49.296;6.900;2023-07-29T06:29:27;19.90;99.90
66568;DHT22;53422;49.296;6.900;2023-07-29T06:31:52;19.90;99.90
66568;DHT22;53422;49.296;6.900;2023-07-29T06:34:18;19.90;99.90
66568;DHT22;53422;49.296;6.900;2023-07-29T06:36:44;19.90;99.90
66568;DHT22;53422;49.296;6.900;2023-07-29T06:39:10;19.90;99.90
66568;DHT22;53422;49.296;6.900;2023-07-29T06:41:35;19.90;99.90
66568;DHT22;53422;49.296;6.900;2023-07-29T06:44:01;20.00;99.90
66568;DHT22;53422;49.296;6.900;2023-07-29T06:46:26;20.00;99.90
66568;DHT22;53422;49.296;6.900;2023-07-29T06:48:52;20.00;99.90
66568;DHT22;53422;49.296;6.900;2023-07-29T06:51:18;20.00;99.90
66568;DHT22;53422;49.296;6.900;2023-07-29T06:53:43;20.00;99.90
66568;DHT22;53422;49.296;6.900;2023-07-29T06:56:09;20.00;99.90
66568;DHT22;53422;49.296;6.900;2023-07-29T06:58:35;20.10;99.90
66568;DHT22;53422;49.296;6.900;2023-07-29T07:01:00;20.10;99.90
66568;DHT22;53422;49.296;6.900;2023-07-29T07:03:26;20.10;99.90
66568;DHT22;53422;49.296;6.900;2023-07-29T07:05:51;20.10;99.90
66568;DHT22;53422;49.296;6.900;2023-07-29T07:08:17;20.10;99.90
66568;DHT22;53422;49.296;6.900;2023-07-29T07:10:42;20.10;99.90
66568;DHT22;53422;49.296;6.900;2023-07-29T07:13:08;20.10;99.90
66568;DHT22;53422;49.296;6.900;2023-07-29T07:15:33;20.10;99.90
66568;DHT22;53422;49.296;6.900;2023-07-29T07:17:59;20.20;99.90
66568;DHT22;53422;49.296;6.900;2023-07-29T07:20:25;20.20;99.90
66568;DHT22;53422;49.296;6.900;2023-07-29T07:22:50;20.30;99.90
66568;DHT22;53422;49.296;6.900;2023-07-29T07:25:16;20.40;99.90
66568;DHT22;53422;49.296;6.900;2023-07-29T07:27:41;20.50;99.90
66568;DHT22;53422;49.296;6.900;2023-07-29T07:30:07;20.60;99.90
66568;DHT22;53422;49.296;6.900;2023-07-29T07:32:33;20.60;99.90
66568;DHT22;53422;49.296;6.900;2023-07-29T07:34:59;20.80;99.90
66568;DHT22;53422;49.296;6.900;2023-07-29T07:37:24;20.80;99.90
66568;DHT22;53422;49.296;6.900;2023-07-29T07:39:50;21.00;99.90
66568;DHT22;53422;49.296;6.900;2023-07-29T07:42:15;21.00;99.90
66568;DHT22;53422;49.296;6.900;2023-07-29T07:44:41;21.10;99.90
66568;DHT22;53422;49.296;6.900;2023-07-29T07:47:06;21.20;99.90
66568;DHT22;53422;49.296;6.900;2023-07-29T07:49:32;21.30;99.90
66568;DHT22;53422;49.296;6.900;2023-07-29T07:51:57;21.40;99.90
66568;DHT22;53422;49.296;6.900;2023-07-29T07:54:23;21.40;99.90
66568;DHT22;53422;49.296;6.900;2023-07-29T07:56:49;21.50;99.90
66568;DHT22;53422;49.296;6.900;2023-07-29T07:59:14;21.60;99.90
66568;DHT22;53422;49.296;6.900;2023-07-29T08:01:40;21.60;99.90
66568;DHT22;53422;49.296;6.900;2023-07-29T08:04:06;21.60;99.90
66568;DHT22;53422;49.296;6.900;2023-07-29T08:06:32;21.80;99.90
66568;DHT22;53422;49.296;6.900;2023-07-29T08:08:58;21.80;99.90
66568;DHT22;53422;49.296;6.900;2023-07-29T08:11:24;21.90;99.90
66568;DHT22;53422;49.296;6.900;2023-07-29T08:13:50;21.90;99.90
66568;DHT22;53422;49.296;6.900;2023-07-29T08:16:16;21.90;99.90
66568;DHT22;53422;49.296;6.900;2023-07-29T08:18:41;21.90;99.90
66568;DHT22;53422;49.296;6.900;2023-07-29T08:21:07;22.00;99.90
66568;DHT22;53422;49.296;6.900;2023-07-29T08:23:34;22.00;99.90
66568;DHT22;53422;49.296;6.900;2023-07-29T08:26:02;22.10;99.90
66568;DHT22;53422;49.296;6.900;2023-07-29T08:28:34;22.20;99.90
66568;DHT22;53422;49.296;6.900;2023-07-29T08:31:00;22.30;99.90
66568;DHT22;53422;49.296;6.900;2023-07-29T08:33:26;22.30;99.90
66568;DHT22;53422;49.296;6.900;2023-07-29T08:35:52;22.40;99.90
66568;DHT22;53422;49.296;6.900;2023-07-29T08:38:17;22.40;99.90
66568;DHT22;53422;49.296;6.900;2023-07-29T08:41:53;22.50;99.90
66568;DHT22;53422;49.296;6.900;2023-07-29T08:46:21;22.60;99.90
66568;DHT22;53422;49.296;6.900;2023-07-29T08:48:47;22.70;99.90
66568;DHT22;53422;49.296;6.900;2023-07-29T08:51:13;22.70;99.90
66568;DHT22;53422;49.296;6.900;2023-07-29T08:53:40;22.80;99.90
66568;DHT22;53422;49.296;6.900;2023-07-29T08:56:06;22.80;99.90
66568;DHT22;53422;49.296;6.900;2023-07-29T08:58:33;22.90;99.90
66568;DHT22;53422;49.296;6.900;2023-07-29T09:00:59;23.00;99.90
66568;DHT22;53422;49.296;6.900;2023-07-29T09:03:25;23.10;99.90
66568;DHT22;53422;49.296;6.900;2023-07-29T09:05:51;23.10;99.90
66568;DHT22;53422;49.296;6.900;2023-07-29T09:08:16;23.20;99.90
66568;DHT22;53422;49.296;6.900;2023-07-29T09:10:42;23.30;99.90
66568;DHT22;53422;49.296;6.900;2023-07-29T09:13:08;23.40;99.90
66568;DHT22;53422;49.296;6.900;2023-07-29T09:15:35;23.40;99.90
66568;DHT22;53422;49.296;6.900;2023-07-29T09:18:16;23.40;99.90
66568;DHT22;53422;49.296;6.900;2023-07-29T09:20:41;23.60;99.90
66568;DHT22;53422;49.296;6.900;2023-07-29T09:23:09;23.80;99.90
66568;DHT22;53422;49.296;6.900;2023-07-29T09:25:36;23.90;99.90
66568;DHT22;53422;49.296;6.900;2023-07-29T09:28:12;24.00;99.90
66568;DHT22;53422;49.296;6.900;2023-07-29T09:30:44;24.10;99.90
66568;DHT22;53422;49.296;6.900;2023-07-29T09:33:10;24.20;99.90
66568;DHT22;53422;49.296;6.900;2023-07-29T09:35:37;24.30;98.20
66568;DHT22;53422;49.296;6.900;2023-07-29T09:38:04;24.40;99.90
66568;DHT22;53422;49.296;6.900;2023-07-29T09:40:40;24.30;99.90
66568;DHT22;53422;49.296;6.900;2023-07-29T09:43:09;24.30;99.90
66568;DHT22;53422;49.296;6.900;2023-07-29T09:45:36;24.30;99.90
66568;DHT22;53422;49.296;6.900;2023-07-29T09:48:02;24.30;99.90
66568;DHT22;53422;49.296;6.900;2023-07-29T09:50:29;24.40;99.90
66568;DHT22;53422;49.296;6.900;2023-07-29T09:52:55;24.40;99.90
66568;DHT22;53422;49.296;6.900;2023-07-29T09:55:24;24.50;99.90
66568;DHT22;53422;49.296;6.900;2023-07-29T09:57:56;24.50;99.90
66568;DHT22;53422;49.296;6.900;2023-07-29T10:00:23;24.50;99.90
66568;DHT22;53422;49.296;6.900;2023-07-29T10:02:49;24.60;99.40
66568;DHT22;53422;49.296;6.900;2023-07-29T10:05:16;24.70;98.80
66568;DHT22;53422;49.296;6.900;2023-07-29T10:07:42;24.70;95.20
66568;DHT22;53422;49.296;6.900;2023-07-29T10:10:08;24.70;98.10
66568;DHT22;53422;49.296;6.900;2023-07-29T10:12:35;24.80;96.80
66568;DHT22;53422;49.296;6.900;2023-07-29T10:15:05;24.90;97.80
66568;DHT22;53422;49.296;6.900;2023-07-29T10:17:35;24.90;96.20
66568;DHT22;53422;49.296;6.900;2023-07-29T10:20:03;25.00;96.50
66568;DHT22;53422;49.296;6.900;2023-07-29T10:22:37;25.10;96.10
66568;DHT22;53422;49.296;6.900;2023-07-29T10:25:08;25.00;97.00
66568;DHT22;53422;49.296;6.900;2023-07-29T10:27:42;25.00;98.20
66568;DHT22;53422;49.296;6.900;2023-07-29T10:30:10;25.00;97.00
66568;DHT22;53422;49.296;6.900;2023-07-29T10:32:36;25.10;95.90
66568;DHT22;53422;49.296;6.900;2023-07-29T10:35:02;25.10;96.00
66568;DHT22;53422;49.296;6.900;2023-07-29T10:37:28;25.20;95.30
66568;DHT22;53422;49.296;6.900;2023-07-29T10:39:55;25.10;92.20
66568;DHT22;53422;49.296;6.900;2023-07-29T10:42:21;25.20;94.60
66568;DHT22;53422;49.296;6.900;2023-07-29T10:44:51;25.10;93.60
66568;DHT22;53422;49.296;6.900;2023-07-29T10:47:29;25.10;93.70
66568;DHT22;53422;49.296;6.900;2023-07-29T10:49:58;25.10;92.40
66568;DHT22;53422;49.296;6.900;2023-07-29T10:55:02;25.10;91.20
66568;DHT22;53422;49.296;6.900;2023-07-29T10:57:32;25.10;94.50
66568;DHT22;53422;49.296;6.900;2023-07-29T10:59:59;25.20;96.90
66568;DHT22;53422;49.296;6.900;2023-07-29T11:02:33;25.20;94.00
66568;DHT22;53422;49.296;6.900;2023-07-29T11:05:15;25.20;90.70
66568;DHT22;53422;49.296;6.900;2023-07-29T11:07:47;25.30;93.60
66568;DHT22;53422;49.296;6.900;2023-07-29T11:10:14;25.40;91.70
66568;DHT22;53422;49.296;6.900;2023-07-29T11:12:50;25.40;90.40
66568;DHT22;53422;49.296;6.900;2023-07-29T11:17:59;25.50;91.50
66568;DHT22;53422;49.296;6.900;2023-07-29T11:20:30;25.60;86.80
66568;DHT22;53422;49.296;6.900;2023-07-29T11:22:59;25.70;92.20
66568;DHT22;53422;49.296;6.900;2023-07-29T11:25:25;25.80;89.10
66568;DHT22;53422;49.296;6.900;2023-07-29T11:27:53;25.80;89.10
66568;DHT22;53422;49.296;6.900;2023-07-29T11:30:19;25.80;90.60
66568;DHT22;53422;49.296;6.900;2023-07-29T11:32:45;25.80;89.70
66568;DHT22;53422;49.296;6.900;2023-07-29T11:35:15;25.80;84.40
66568;DHT22;53422;49.296;6.900;2023-07-29T11:37:46;25.80;85.30
66568;DHT22;53422;49.296;6.900;2023-07-29T11:40:30;25.80;82.40
66568;DHT22;53422;49.296;6.900;2023-07-29T11:42:55;25.80;84.70
66568;DHT22;53422;49.296;6.900;2023-07-29T11:45:22;25.80;89.30
66568;DHT22;53422;49.296;6.900;2023-07-29T11:47:48;25.80;85.30
66568;DHT22;53422;49.296;6.900;2023-07-29T11:50:15;25.80;82.10
66568;DHT22;53422;49.296;6.900;2023-07-29T11:52:43;25.70;84.60
66568;DHT22;53422;49.296;6.900;2023-07-29T11:55:09;25.70;81.90
66568;DHT22;53422;49.296;6.900;2023-07-29T11:57:37;25.70;79.10
66568;DHT22;53422;49.296;6.900;2023-07-29T12:00:07;25.60;77.70
66568;DHT22;53422;49.296;6.900;2023-07-29T12:02:38;25.60;81.70
66568;DHT22;53422;49.296;6.900;2023-07-29T12:05:05;25.60;80.10
66568;DHT22;53422;49.296;6.900;2023-07-29T12:07:31;25.50;81.00
66568;DHT22;53422;49.296;6.900;2023-07-29T12:09:59;25.50;83.90
66568;DHT22;53422;49.296;6.900;2023-07-29T12:12:24;25.50;85.90
66568;DHT22;53422;49.296;6.900;2023-07-29T12:14:50;25.50;87.30
66568;DHT22;53422;49.296;6.900;2023-07-29T12:17:15;25.50;88.60
66568;DHT22;53422;49.296;6.900;2023-07-29T12:19:42;25.60;89.70
66568;DHT22;53422;49.296;6.900;2023-07-29T12:22:09;25.60;85.60
66568;DHT22;53422;49.296;6.900;2023-07-29T12:24:37;25.60;84.20
66568;DHT22;53422;49.296;6.900;2023-07-29T12:27:03;25.60;85.70
66568;DHT22;53422;49.296;6.900;2023-07-29T12:29:28;25.60;84.80
66568;DHT22;53422;49.296;6.900;2023-07-29T12:32:12;25.50;87.00
66568;DHT22;53422;49.296;6.900;2023-07-29T12:34:38;25.60;88.30
66568;DHT22;53422;49.296;6.900;2023-07-29T12:37:05;25.60;88.00
66568;DHT22;53422;49.296;6.900;2023-07-29T12:39:38;25.60;86.20
66568;DHT22;53422;49.296;6.900;2023-07-29T12:42:05;25.50;88.70
66568;DHT22;53422;49.296;6.900;2023-07-29T12:44:33;25.60;88.70
66568;DHT22;53422;49.296;6.900;2023-07-29T12:47:01;25.50;89.60
66568;DHT22;53422;49.296;6.900;2023-07-29T12:49:28;25.60;90.50
66568;DHT22;53422;49.296;6.900;2023-07-29T12:51:55;25.60;87.80
66568;DHT22;53422;49.296;6.900;2023-07-29T12:54:21;25.70;85.00
66568;DHT22;53422;49.296;6.900;2023-07-29T12:56:46;25.70;79.10
66568;DHT22;53422;49.296;6.900;2023-07-29T12:59:12;25.80;76.30
66568;DHT22;53422;49.296;6.900;2023-07-29T13:01:37;25.90;77.60
66568;DHT22;53422;49.296;6.900;2023-07-29T13:04:03;25.90;76.50
66568;DHT22;53422;49.296;6.900;2023-07-29T13:06:28;25.90;78.30
66568;DHT22;53422;49.296;6.900;2023-07-29T13:08:54;25.90;77.00
66568;DHT22;53422;49.296;6.900;2023-07-29T13:11:20;26.00;75.40
66568;DHT22;53422;49.296;6.900;2023-07-29T13:13:45;26.10;81.00
66568;DHT22;53422;49.296;6.900;2023-07-29T13:16:11;26.20;77.30
66568;DHT22;53422;49.296;6.900;2023-07-29T13:18:38;26.20;79.70
66568;DHT22;53422;49.296;6.900;2023-07-29T13:21:03;26.30;78.50
66568;DHT22;53422;49.296;6.900;2023-07-29T13:23:29;26.40;77.60
66568;DHT22;53422;49.296;6.900;2023-07-29T13:25:56;26.50;77.30
66568;DHT22;53422;49.296;6.900;2023-07-29T13:28:21;26.60;76.50
66568;DHT22;53422;49.296;6.900;2023-07-29T13:30:47;26.60;75.10
66568;DHT22;53422;49.296;6.900;2023-07-29T13:33:12;26.60;72.40
66568;DHT22;53422;49.296;6.900;2023-07-29T13:35:38;26.60;75.20
66568;DHT22;53422;49.296;6.900;2023-07-29T13:38:04;26.70;72.70
66568;DHT22;53422;49.296;6.900;2023-07-29T13:40:29;26.60;78.60
66568;DHT22;53422;49.296;6.900;2023-07-29T13:42:55;26.60;73.80
66568;DHT22;53422;49.296;6.900;2023-07-29T13:45:21;26.70;72.00
66568;DHT22;53422;49.296;6.900;2023-07-29T13:47:51;26.70;75.80
66568;DHT22;53422;49.296;6.900;2023-07-29T13:50:17;26.80;74.60
66568;DHT22;53422;49.296;6.900;2023-07-29T13:52:43;26.80;72.10
66568;DHT22;53422;49.296;6.900;2023-07-29T13:55:09;26.80;74.10
66568;DHT22;53422;49.296;6.900;2023-07-29T13:57:35;26.80;72.30
66568;DHT22;53422;49.296;6.900;2023-07-29T14:00:01;26.70;79.70
66568;DHT22;53422;49.296;6.900;2023-07-29T14:02:27;26.70;75.30
66568;DHT22;53422;49.296;6.900;2023-07-29T14:04:53;26.70;78.10
66568;DHT22;53422;49.296;6.900;2023-07-29T14:07:18;26.80;75.40
66568;DHT22;53422;49.296;6.900;2023-07-29T14:09:44;26.70;73.50
66568;DHT22;53422;49.296;6.900;2023-07-29T14:12:10;26.70;73.60
66568;DHT22;53422;49.296;6.900;2023-07-29T14:14:41;26.70;74.00
66568;DHT22;53422;49.296;6.900;2023-07-29T14:17:07;26.70;72.20
66568;DHT22;53422;49.296;6.900;2023-07-29T14:19:36;26.70;70.70
66568;DHT22;53422;49.296;6.900;2023-07-29T14:22:01;26.70;74.20
66568;DHT22;53422;49.296;6.900;2023-07-29T14:24:27;26.60;75.00
66568;DHT22;53422;49.296;6.900;2023-07-29T14:26:52;26.60;73.00
66568;DHT22;53422;49.296;6.900;2023-07-29T14:29:18;26.60;73.20
66568;DHT22;53422;49.296;6.900;2023-07-29T14:31:43;26.60;73.00
66568;DHT22;53422;49.296;6.900;2023-07-29T14:34:09;26.60;74.20
66568;DHT22;53422;49.296;6.900;2023-07-29T14:36:35;26.60;77.10
66568;DHT22;53422;49.296;6.900;2023-07-29T14:39:01;26.50;75.70
66568;DHT22;53422;49.296;6.900;2023-07-29T14:41:27;26.50;76.50
66568;DHT22;53422;49.296;6.900;2023-07-29T14:43:53;26.50;75.30
66568;DHT22;53422;49.296;6.900;2023-07-29T14:46:18;26.50;75.90
66568;DHT22;53422;49.296;6.900;2023-07-29T14:48:44;26.50;77.00
66568;DHT22;53422;49.296;6.900;2023-07-29T14:51:10;26.40;80.90
66568;DHT22;53422;49.296;6.900;2023-07-29T14:53:36;26.40;75.60
66568;DHT22;53422;49.296;6.900;2023-07-29T14:56:01;26.40;82.50
66568;DHT22;53422;49.296;6.900;2023-07-29T14:58:27;26.40;77.20
66568;DHT22;53422;49.296;6.900;2023-07-29T15:00:53;26.40;79.10
66568;DHT22;53422;49.296;6.900;2023-07-29T15:03:18;26.40;80.60
66568;DHT22;53422;49.296;6.900;2023-07-29T15:05:44;26.30;79.10
66568;DHT22;53422;49.296;6.900;2023-07-29T15:08:10;26.40;77.70
66568;DHT22;53422;49.296;6.900;2023-07-29T15:10:35;26.40;76.50
66568;DHT22;53422;49.296;6.900;2023-07-29T15:13:02;26.50;75.80
66568;DHT22;53422;49.296;6.900;2023-07-29T15:15:28;26.40;76.60
66568;DHT22;53422;49.296;6.900;2023-07-29T15:17:53;26.40;76.00
66568;DHT22;53422;49.296;6.900;2023-07-29T15:20:19;26.40;76.00
66568;DHT22;53422;49.296;6.900;2023-07-29T15:22:44;26.40;75.60
66568;DHT22;53422;49.296;6.900;2023-07-29T15:25:10;26.40;77.10
66568;DHT22;53422;49.296;6.900;2023-07-29T15:27:37;26.30;74.20
66568;DHT22;53422;49.296;6.900;2023-07-29T15:30:02;26.30;73.70
66568;DHT22;53422;49.296;6.900;2023-07-29T15:32:28;26.30;76.50
66568;DHT22;53422;49.296;6.900;2023-07-29T15:34:54;26.30;76.20
66568;DHT22;53422;49.296;6.900;2023-07-29T15:37:19;26.20;73.90
66568;DHT22;53422;49.296;6.900;2023-07-29T15:39:45;26.20;77.40